sensor_id;sensor_type;location;lat;lon;timestamp;temperature;humidity
52471;DHT22;38382;53.160;7.026;2023-03-26T00:01:54;7.20;99.90
52471;DHT22;38382;53.160;7.026;2023-03-26T00:04:21;7.20;99.90
52471;DHT22;38382;53.160;7.026;2023-03-26T00:06:50;7.20;99.90
52471;DHT22;38382;53.160;7.026;2023-03-26T00:09:17;7.20;99.90
52471;DHT22;38382;53.160;7.026;2023-03-26T00:11:43;7.20;99.90
52471;DHT22;38382;53.160;7.026;2023-03-26T00:14:11;7.20;99.90
52471;DHT22;38382;53.160;7.026;2023-03-26T00:16:39;7.20;99.90
52471;DHT22;38382;53.160;7.026;2023-03-26T00:19:08;7.20;99.90
52471;DHT22;38382;53.160;7.026;2023-03-26T00:21:35;7.20;99.90
52471;DHT22;38382;53.160;7.026;2023-03-26T00:24:08;7.20;99.90
52471;DHT22;38382;53.160;7.026;2023-03-26T00:26:35;7.20;99.90
52471;DHT22;38382;53.160;7.026;2023-03-26T00:29:03;7.20;99.90
52471;DHT22;38382;53.160;7.026;2023-03-26T00:31:29;7.20;99.90
52471;DHT22;38382;53.160;7.026;2023-03-26T00:33:55;7.20;99.90
52471;DHT22;38382;53.160;7.026;2023-03-26T00:36:23;7.20;99.90
52471;DHT22;38382;53.160;7.026;2023-03-26T00:38:53;7.20;99.90
52471;DHT22;38382;53.160;7.026;2023-03-26T00:41:20;7.20;99.90
52471;DHT22;38382;53.160;7.026;2023-03-26T00:43:55;7.20;99.90
52471;DHT22;38382;53.160;7.026;2023-03-26T00:46:22;7.20;99.90
52471;DHT22;38382;53.160;7.026;2023-03-26T00:48:48;7.20;99.90
52471;DHT22;38382;53.160;7.026;2023-03-26T00:51:16;7.20;99.90
52471;DHT22;38382;53.160;7.026;2023-03-26T00:53:44;7.20;99.90
52471;DHT22;38382;53.160;7.026;2023-03-26T00:56:10;7.10;99.90
52471;DHT22;38382;53.160;7.026;2023-03-26T00:58:36;7.10;99.90
52471;DHT22;38382;53.160;7.026;2023-03-26T01:01:05;7.10;99.90
52471;DHT22;38382;53.160;7.026;2023-03-26T01:03:32;7.10;99.90
52471;DHT22;38382;53.160;7.026;2023-03-26T01:06:23;7.10;99.90
52471;DHT22;38382;53.160;7.026;2023-03-26T01:08:53;7.10;99.90
52471;DHT22;38382;53.160;7.026;2023-03-26T01:11:30;7.10;99.90
52471;DHT22;38382;53.160;7.026;2023-03-26T01:14:00;7.00;99.90
52471;DHT22;38382;53.160;7.026;2023-03-26T01:16:40;7.00;99.90
52471;DHT22;38382;53.160;7.026;2023-03-26T01:19:11;7.00;99.90
52471;DHT22;38382;53.160;7.026;2023-03-26T01:21:40;7.00;99.90
52471;DHT22;38382;53.160;7.026;2023-03-26T01:24:08;7.00;99.90
52471;DHT22;38382;53.160;7.026;2023-03-26T01:29:04;7.00;99.90
52471;DHT22;38382;53.160;7.026;2023-03-26T01:34:33;7.00;99.90
52471;DHT22;38382;53.160;7.026;2023-03-26T01:39:52;7.00;99.90
52471;DHT22;38382;53.160;7.026;2023-03-26T01:42:29;6.90;99.90
52471;DHT22;38382;53.160;7.026;2023-03-26T01:45:05;6.90;99.90
52471;DHT22;38382;53.160;7.026;2023-03-26T01:47:33;6.90;99.90
52471;DHT22;38382;53.160;7.026;2023-03-26T01:50:00;6.90;99.90
52471;DHT22;38382;53.160;7.026;2023-03-26T01:52:25;6.90;99.90
52471;DHT22;38382;53.160;7.026;2023-03-26T01:54:55;6.80;99.90
52471;DHT22;38382;53.160;7.026;2023-03-26T02:00:08;6.80;99.90
52471;DHT22;38382;53.160;7.026;2023-03-26T02:05:33;6.70;99.90
52471;DHT22;38382;53.160;7.026;2023-03-26T02:10:54;6.60;99.90
52471;DHT22;38382;53.160;7.026;2023-03-26T02:13:22;6.60;99.90
52471;DHT22;38382;53.160;7.026;2023-03-26T02:16:00;6.60;99.90
52471;DHT22;38382;53.160;7.026;2023-03-26T02:18:26;6.60;99.90
52471;DHT22;38382;53.160;7.026;2023-03-26T02:21:05;6.50;99.90
52471;DHT22;38382;53.160;7.026;2023-03-26T02:23:34;6.50;99.90
52471;DHT22;38382;53.160;7.026;2023-03-26T02:26:04;6.50;99.90
52471;DHT22;38382;53.160;7.026;2023-03-26T02:28:30;6.40;99.90
52471;DHT22;38382;53.160;7.026;2023-03-26T02:30:56;6.40;99.90
52471;DHT22;38382;53.160;7.026;2023-03-26T02:33:29;6.40;99.90
52471;DHT22;38382;53.160;7.026;2023-03-26T02:35:56;6.30;99.90
52471;DHT22;38382;53.160;7.026;2023-03-26T02:38:27;6.50;99.90
52471;DHT22;38382;53.160;7.026;2023-03-26T02:40:54;6.20;99.90
52471;DHT22;38382;53.160;7.026;2023-03-26T02:43:20;6.30;99.90
52471;DHT22;38382;53.160;7.026;2023-03-26T02:45:46;6.20;99.90
52471;DHT22;38382;53.160;7.026;2023-03-26T02:48:12;6.30;99.90
52471;DHT22;38382;53.160;7.026;2023-03-26T02:50:39;6.20;99.90
52471;DHT22;38382;53.160;7.026;2023-03-26T02:53:05;6.20;99.90
52471;DHT22;38382;53.160;7.026;2023-03-26T02:55:31;6.20;99.90
52471;DHT22;38382;53.160;7.026;2023-03-26T02:57:57;7.10;99.90
52471;DHT22;38382;53.160;7.026;2023-03-26T03:00:23;6.30;99.90
52471;DHT22;38382;53.160;7.026;2023-03-26T03:02:50;6.30;99.90
52471;DHT22;38382;53.160;7.026;2023-03-26T03:05:23;6.40;99.90
52471;DHT22;38382;53.160;7.026;2023-03-26T03:07:52;6.30;99.90
52471;DHT22;38382;53.160;7.026;2023-03-26T03:10:24;6.30;99.90
52471;DHT22;38382;53.160;7.026;2023-03-26T03:12:49;6.30;99.90
52471;DHT22;38382;53.160;7.026;2023-03-26T03:15:15;6.30;99.90
52471;DHT22;38382;53.160;7.026;2023-03-26T03:17:41;6.30;99.90
52471;DHT22;38382;53.160;7.026;2023-03-26T03:20:07;6.30;99.90
52471;DHT22;38382;53.160;7.026;2023-03-26T03:22:36;6.30;99.90
52471;DHT22;38382;53.160;7.026;2023-03-26T03:25:03;6.30;99.90
52471;DHT22;38382;53.160;7.026;2023-03-26T03:27:29;6.30;99.90
52471;DHT22;38382;53.160;7.026;2023-03-26T03:29:55;6.30;99.90
52471;DHT22;38382;53.160;7.026;2023-03-26T03:32:23;6.30;99.90
52471;DHT22;38382;53.160;7.026;2023-03-26T03:34:49;6.30;99.90
52471;DHT22;38382;53.160;7.026;2023-03-26T03:37:18;6.30;99.90
52471;DHT22;38382;53.160;7.026;2023-03-26T03:39:44;6.30;99.90
52471;DHT22;38382;53.160;7.026;2023-03-26T03:42:10;6.30;99.90
52471;DHT22;38382;53.160;7.026;2023-03-26T03:44:36;6.30;99.90
52471;DHT22;38382;53.160;7.026;2023-03-26T03:47:02;6.30;99.90
52471;DHT22;38382;53.160;7.026;2023-03-26T03:49:27;6.20;99.90
52471;DHT22;38382;53.160;7.026;2023-03-26T03:51:53;6.30;99.90
52471;DHT22;38382;53.160;7.026;2023-03-26T03:54:19;6.20;99.90
52471;DHT22;38382;53.160;7.026;2023-03-26T03:56:45;6.30;99.90
52471;DHT22;38382;53.160;7.026;2023-03-26T03:59:11;6.20;99.90
52471;DHT22;38382;53.160;7.026;2023-03-26T04:01:37;6.30;99.90
52471;DHT22;38382;53.160;7.026;2023-03-26T04:04:03;6.30;99.90
52471;DHT22;38382;53.160;7.026;2023-03-26T04:06:29;6.20;99.90
52471;DHT22;38382;53.160;7.026;2023-03-26T04:08:57;6.20;99.90
52471;DHT22;38382;53.160;7.026;2023-03-26T04:11:23;6.20;99.90
52471;DHT22;38382;53.160;7.026;2023-03-26T04:13:49;6.10;99.90
52471;DHT22;38382;53.160;7.026;2023-03-26T04:16:15;6.10;99.90
52471;DHT22;38382;53.160;7.026;2023-03-26T04:18:42;6.20;99.90
52471;DHT22;38382;53.160;7.026;2023-03-26T04:21:10;6.00;99.90
52471;DHT22;38382;53.160;7.026;2023-03-26T04:23:37;6.00;99.90
52471;DHT22;38382;53.160;7.026;2023-03-26T04:26:07;5.90;99.90
52471;DHT22;38382;53.160;7.026;2023-03-26T04:28:48;6.00;99.90
52471;DHT22;38382;53.160;7.026;2023-03-26T04:31:17;5.90;99.90
52471;DHT22;38382;53.160;7.026;2023-03-26T04:33:46;5.80;99.90
52471;DHT22;38382;53.160;7.026;2023-03-26T04:36:14;5.80;99.90
52471;DHT22;38382;53.160;7.026;2023-03-26T04:38:42;6.00;99.90
52471;DHT22;38382;53.160;7.026;2023-03-26T04:41:12;5.80;99.90
52471;DHT22;38382;53.160;7.026;2023-03-26T04:43:38;5.90;99.90
52471;DHT22;38382;53.160;7.026;2023-03-26T04:46:17;5.70;99.90
52471;DHT22;38382;53.160;7.026;2023-03-26T04:48:46;5.70;99.90
52471;DHT22;38382;53.160;7.026;2023-03-26T04:51:13;5.70;99.90
52471;DHT22;38382;53.160;7.026;2023-03-26T04:53:51;5.70;99.90
52471;DHT22;38382;53.160;7.026;2023-03-26T04:56:33;5.70;99.90
52471;DHT22;38382;53.160;7.026;2023-03-26T04:59:01;5.70;99.90
52471;DHT22;38382;53.160;7.026;2023-03-26T05:01:27;5.70;99.90
52471;DHT22;38382;53.160;7.026;2023-03-26T05:03:53;5.90;99.90
52471;DHT22;38382;53.160;7.026;2023-03-26T05:06:19;5.70;99.90
52471;DHT22;38382;53.160;7.026;2023-03-26T05:08:46;5.70;99.90
52471;DHT22;38382;53.160;7.026;2023-03-26T05:11:12;5.80;99.90
52471;DHT22;38382;53.160;7.026;2023-03-26T05:13:38;5.70;99.90
52471;DHT22;38382;53.160;7.026;2023-03-26T05:16:09;5.80;99.90
52471;DHT22;38382;53.160;7.026;2023-03-26T05:18:35;5.80;99.90
52471;DHT22;38382;53.160;7.026;2023-03-26T05:21:01;5.80;99.90
52471;DHT22;38382;53.160;7.026;2023-03-26T05:23:27;5.80;99.90
52471;DHT22;38382;53.160;7.026;2023-03-26T05:25:53;5.80;99.90
52471;DHT22;38382;53.160;7.026;2023-03-26T05:28:18;5.80;99.90
52471;DHT22;38382;53.160;7.026;2023-03-26T05:30:45;5.90;99.90
52471;DHT22;38382;53.160;7.026;2023-03-26T05:33:11;5.80;99.90
52471;DHT22;38382;53.160;7.026;2023-03-26T05:35:37;5.80;99.90
52471;DHT22;38382;53.160;7.026;2023-03-26T05:38:03;5.80;99.90
52471;DHT22;38382;53.160;7.026;2023-03-26T05:40:29;5.80;99.90
52471;DHT22;38382;53.160;7.026;2023-03-26T05:42:54;5.80;99.90
52471;DHT22;38382;53.160;7.026;2023-03-26T05:45:20;5.80;99.90
52471;DHT22;38382;53.160;7.026;2023-03-26T05:47:47;5.80;99.90
52471;DHT22;38382;53.160;7.026;2023-03-26T05:50:14;5.80;99.90
52471;DHT22;38382;53.160;7.026;2023-03-26T05:52:40;5.90;99.90
52471;DHT22;38382;53.160;7.026;2023-03-26T05:55:06;5.80;99.90
52471;DHT22;38382;53.160;7.026;2023-03-26T05:57:33;5.80;99.90
52471;DHT22;38382;53.160;7.026;2023-03-26T06:00:00;5.80;99.90
52471;DHT22;38382;53.160;7.026;2023-03-26T06:02:27;5.80;99.90
52471;DHT22;38382;53.160;7.026;2023-03-26T06:04:53;5.80;99.90
52471;DHT22;38382;53.160;7.026;2023-03-26T06:07:21;5.90;99.90
52471;DHT22;38382;53.160;7.026;2023-03-26T06:09:47;6.10;99.90
52471;DHT22;38382;53.160;7.026;2023-03-26T06:12:14;5.90;99.90
52471;DHT22;38382;53.160;7.026;2023-03-26T06:14:40;6.00;99.90
52471;DHT22;38382;53.160;7.026;2023-03-26T06:17:10;6.00;99.90
52471;DHT22;38382;53.160;7.026;2023-03-26T06:19:36;6.00;99.90
52471;DHT22;38382;53.160;7.026;2023-03-26T06:22:03;6.00;99.90
52471;DHT22;38382;53.160;7.026;2023-03-26T06:24:29;6.40;99.90
52471;DHT22;38382;53.160;7.026;2023-03-26T06:26:54;6.00;99.90
52471;DHT22;38382;53.160;7.026;2023-03-26T06:29:20;6.10;99.90
52471;DHT22;38382;53.160;7.026;2023-03-26T06:31:46;6.30;99.90
52471;DHT22;38382;53.160;7.026;2023-03-26T06:34:11;6.10;99.90
52471;DHT22;38382;53.160;7.026;2023-03-26T06:36:37;6.10;99.90
52471;DHT22;38382;53.160;7.026;2023-03-26T06:39:03;6.20;99.90
52471;DHT22;38382;53.160;7.026;2023-03-26T06:41:32;6.20;99.90
52471;DHT22;38382;53.160;7.026;2023-03-26T06:43:59;6.40;99.90
52471;DHT22;38382;53.160;7.026;2023-03-26T06:46:24;6.40;99.90
52471;DHT22;38382;53.160;7.026;2023-03-26T06:48:50;6.60;99.90
52471;DHT22;38382;53.160;7.026;2023-03-26T06:51:16;6.50;99.90
52471;DHT22;38382;53.160;7.026;2023-03-26T06:53:42;6.60;99.90
52471;DHT22;38382;53.160;7.026;2023-03-26T06:56:08;6.60;99.90
52471;DHT22;38382;53.160;7.026;2023-03-26T06:58:34;6.70;99.90
52471;DHT22;38382;53.160;7.026;2023-03-26T07:01:00;6.70;99.90
52471;DHT22;38382;53.160;7.026;2023-03-26T07:03:25;7.20;99.90
52471;DHT22;38382;53.160;7.026;2023-03-26T07:05:51;6.80;99.90
52471;DHT22;38382;53.160;7.026;2023-03-26T07:08:17;6.80;99.90
52471;DHT22;38382;53.160;7.026;2023-03-26T07:10:43;6.90;99.90
52471;DHT22;38382;53.160;7.026;2023-03-26T07:13:09;6.90;99.90
52471;DHT22;38382;53.160;7.026;2023-03-26T07:15:35;6.90;99.90
52471;DHT22;38382;53.160;7.026;2023-03-26T07:18:01;7.00;99.90
52471;DHT22;38382;53.160;7.026;2023-03-26T07:20:27;6.90;99.90
52471;DHT22;38382;53.160;7.026;2023-03-26T07:22:53;6.90;99.90
52471;DHT22;38382;53.160;7.026;2023-03-26T07:25:19;6.90;99.90
52471;DHT22;38382;53.160;7.026;2023-03-26T07:38:59;7.10;99.90
52471;DHT22;38382;53.160;7.026;2023-03-26T07:42:04;7.10;99.90
52471;DHT22;38382;53.160;7.026;2023-03-26T07:47:26;7.30;99.90
52471;DHT22;38382;53.160;7.026;2023-03-26T07:49:54;7.50;99.90
52471;DHT22;38382;53.160;7.026;2023-03-26T07:52:22;7.50;99.90
52471;DHT22;38382;53.160;7.026;2023-03-26T07:54:48;7.60;99.90
52471;DHT22;38382;53.160;7.026;2023-03-26T07:59:58;7.80;99.90
52471;DHT22;38382;53.160;7.026;2023-03-26T08:02:45;7.80;99.90
52471;DHT22;38382;53.160;7.026;2023-03-26T08:05:30;7.80;99.90
52471;DHT22;38382;53.160;7.026;2023-03-26T08:10:34;7.90;99.90
52471;DHT22;38382;53.160;7.026;2023-03-26T08:13:25;8.00;99.90
52471;DHT22;38382;53.160;7.026;2023-03-26T08:21:50;8.30;99.90
52471;DHT22;38382;53.160;7.026;2023-03-26T08:24:30;8.50;99.90
52471;DHT22;38382;53.160;7.026;2023-03-26T08:27:08;8.60;99.90
52471;DHT22;38382;53.160;7.026;2023-03-26T08:32:19;8.80;99.90
52471;DHT22;38382;53.160;7.026;2023-03-26T08:34:45;8.80;99.90
52471;DHT22;38382;53.160;7.026;2023-03-26T08:37:11;8.90;99.90
52471;DHT22;38382;53.160;7.026;2023-03-26T08:39:37;9.00;99.90
52471;DHT22;38382;53.160;7.026;2023-03-26T09:15:38;9.70;99.90
52471;DHT22;38382;53.160;7.026;2023-03-26T09:27:21;9.90;99.90
52471;DHT22;38382;53.160;7.026;2023-03-26T09:29:32;10.00;99.90
52471;DHT22;38382;53.160;7.026;2023-03-26T09:37:57;10.10;99.90
52471;DHT22;38382;53.160;7.026;2023-03-26T09:40:43;10.20;99.90
52471;DHT22;38382;53.160;7.026;2023-03-26T09:43:34;10.10;99.90
52471;DHT22;38382;53.160;7.026;2023-03-26T09:46:21;10.10;99.90
52471;DHT22;38382;53.160;7.026;2023-03-26T09:52:01;10.00;99.90
52471;DHT22;38382;53.160;7.026;2023-03-26T09:54:37;10.00;99.90
52471;DHT22;38382;53.160;7.026;2023-03-26T09:57:19;10.00;99.90
52471;DHT22;38382;53.160;7.026;2023-03-26T10:05:48;10.10;99.90
52471;DHT22;38382;53.160;7.026;2023-03-26T10:08:39;10.20;99.90
52471;DHT22;38382;53.160;7.026;2023-03-26T10:11:29;10.30;99.90
52471;DHT22;38382;53.160;7.026;2023-03-26T10:14:33;10.40;99.90
52471;DHT22;38382;53.160;7.026;2023-03-26T10:31:35;10.80;99.90
52471;DHT22;38382;53.160;7.026;2023-03-26T10:36:45;10.90;99.90
52471;DHT22;38382;53.160;7.026;2023-03-26T10:39:32;10.90;99.90
52471;DHT22;38382;53.160;7.026;2023-03-26T10:48:43;11.40;99.90
52471;DHT22;38382;53.160;7.026;2023-03-26T10:53:45;11.30;99.90
52471;DHT22;38382;53.160;7.026;2023-03-26T10:58:42;11.20;99.90
52471;DHT22;38382;53.160;7.026;2023-03-26T11:01:18;11.20;99.90
52471;DHT22;38382;53.160;7.026;2023-03-26T11:03:51;11.20;99.90
52471;DHT22;38382;53.160;7.026;2023-03-26T11:09:12;11.40;99.90
52471;DHT22;38382;53.160;7.026;2023-03-26T11:12:00;11.40;99.90
52471;DHT22;38382;53.160;7.026;2023-03-26T11:20:20;11.60;99.90
52471;DHT22;38382;53.160;7.026;2023-03-26T11:23:08;12.00;99.90
52471;DHT22;38382;53.160;7.026;2023-03-26T11:31:16;12.80;99.90
52471;DHT22;38382;53.160;7.026;2023-03-26T11:33:48;12.70;99.90
52471;DHT22;38382;53.160;7.026;2023-03-26T11:36:28;12.70;99.90
52471;DHT22;38382;53.160;7.026;2023-03-26T11:38:57;12.60;99.90
52471;DHT22;38382;53.160;7.026;2023-03-26T11:41:28;12.30;99.90
52471;DHT22;38382;53.160;7.026;2023-03-26T11:44:02;12.20;99.90
52471;DHT22;38382;53.160;7.026;2023-03-26T11:46:29;12.10;99.90
52471;DHT22;38382;53.160;7.026;2023-03-26T11:49:00;11.90;99.90
52471;DHT22;38382;53.160;7.026;2023-03-26T11:51:31;11.70;99.90
52471;DHT22;38382;53.160;7.026;2023-03-26T11:54:01;11.60;99.90
52471;DHT22;38382;53.160;7.026;2023-03-26T11:56:35;11.40;99.90
52471;DHT22;38382;53.160;7.026;2023-03-26T11:59:29;11.30;99.90
52471;DHT22;38382;53.160;7.026;2023-03-26T12:07:16;11.80;99.90
52471;DHT22;38382;53.160;7.026;2023-03-26T12:09:55;12.00;99.90
52471;DHT22;38382;53.160;7.026;2023-03-26T12:12:31;12.10;99.90
52471;DHT22;38382;53.160;7.026;2023-03-26T12:14:58;12.10;99.90
52471;DHT22;38382;53.160;7.026;2023-03-26T12:17:33;12.20;99.90
52471;DHT22;38382;53.160;7.026;2023-03-26T12:20:00;12.10;99.90
52471;DHT22;38382;53.160;7.026;2023-03-26T12:22:37;12.10;99.90
52471;DHT22;38382;53.160;7.026;2023-03-26T12:28:17;12.10;99.90
52471;DHT22;38382;53.160;7.026;2023-03-26T12:31:03;12.10;99.90
52471;DHT22;38382;53.160;7.026;2023-03-26T12:33:33;12.40;99.90
52471;DHT22;38382;53.160;7.026;2023-03-26T12:36:18;12.30;99.90
52471;DHT22;38382;53.160;7.026;2023-03-26T12:38:44;12.30;99.90
52471;DHT22;38382;53.160;7.026;2023-03-26T12:41:15;12.20;99.90
52471;DHT22;38382;53.160;7.026;2023-03-26T12:43:44;12.00;99.90
52471;DHT22;38382;53.160;7.026;2023-03-26T12:48:54;11.90;99.90
52471;DHT22;38382;53.160;7.026;2023-03-26T13:14:06;12.60;99.90
52471;DHT22;38382;53.160;7.026;2023-03-26T13:19:33;13.30;99.90
52471;DHT22;38382;53.160;7.026;2023-03-26T13:22:16;13.40;99.90
52471;DHT22;38382;53.160;7.026;2023-03-26T13:25:15;13.40;99.90
52471;DHT22;38382;53.160;7.026;2023-03-26T13:28:16;13.40;99.60
52471;DHT22;38382;53.160;7.026;2023-03-26T13:31:01;13.40;98.60
52471;DHT22;38382;53.160;7.026;2023-03-26T13:33:38;13.20;98.70
52471;DHT22;38382;53.160;7.026;2023-03-26T13:36:29;13.00;99.90
52471;DHT22;38382;53.160;7.026;2023-03-26T13:41:53;12.50;99.90
52471;DHT22;38382;53.160;7.026;2023-03-26T13:46:59;12.40;99.90
52471;DHT22;38382;53.160;7.026;2023-03-26T13:49:46;12.20;99.90
52471;DHT22;38382;53.160;7.026;2023-03-26T13:57:32;12.60;99.90
52471;DHT22;38382;53.160;7.026;2023-03-26T14:00:18;12.50;99.90
52471;DHT22;38382;53.160;7.026;2023-03-26T14:02:57;12.30;99.90
52471;DHT22;38382;53.160;7.026;2023-03-26T14:05:33;12.20;99.90
52471;DHT22;38382;53.160;7.026;2023-03-26T14:08:21;12.00;99.90
52471;DHT22;38382;53.160;7.026;2023-03-26T14:10:58;11.90;99.90
52471;DHT22;38382;53.160;7.026;2023-03-26T14:13:52;11.80;99.90
52471;DHT22;38382;53.160;7.026;2023-03-26T14:16:27;11.60;99.90
52471;DHT22;38382;53.160;7.026;2023-03-26T14:19:26;11.50;99.90
52471;DHT22;38382;53.160;7.026;2023-03-26T14:25:15;11.30;99.90
52471;DHT22;38382;53.160;7.026;2023-03-26T14:30:49;11.30;99.90
52471;DHT22;38382;53.160;7.026;2023-03-26T14:36:05;12.40;99.90
52471;DHT22;38382;53.160;7.026;2023-03-26T14:41:45;15.00;95.30
52471;DHT22;38382;53.160;7.026;2023-03-26T14:47:20;15.20;91.00
52471;DHT22;38382;53.160;7.026;2023-03-26T14:50:01;14.30;90.50
52471;DHT22;38382;53.160;7.026;2023-03-26T14:52:49;13.40;92.60
52471;DHT22;38382;53.160;7.026;2023-03-26T15:07:13;17.20;79.90
52471;DHT22;38382;53.160;7.026;2023-03-26T15:10:13;18.40;75.90
52471;DHT22;38382;53.160;7.026;2023-03-26T15:15:49;17.00;70.60
52471;DHT22;38382;53.160;7.026;2023-03-26T15:29:11;15.60;75.80
52471;DHT22;38382;53.160;7.026;2023-03-26T15:35:40;14.20;80.40
52471;DHT22;38382;53.160;7.026;2023-03-26T15:43:13;12.70;87.50
52471;DHT22;38382;53.160;7.026;2023-03-26T15:56:52;11.30;91.30
52471;DHT22;38382;53.160;7.026;2023-03-26T15:59:46;11.20;91.40
52471;DHT22;38382;53.160;7.026;2023-03-26T16:02:19;12.80;90.90
52471;DHT22;38382;53.160;7.026;2023-03-26T16:04:51;13.40;88.50
52471;DHT22;38382;53.160;7.026;2023-03-26T16:10:49;12.90;87.30
52471;DHT22;38382;53.160;7.026;2023-03-26T16:15:47;12.00;90.50
52471;DHT22;38382;53.160;7.026;2023-03-26T16:18:18;11.70;90.20
52471;DHT22;38382;53.160;7.026;2023-03-26T16:20:53;11.20;90.80
52471;DHT22;38382;53.160;7.026;2023-03-26T16:28:34;10.10;92.80
52471;DHT22;38382;53.160;7.026;2023-03-26T16:31:26;9.80;92.70
52471;DHT22;38382;53.160;7.026;2023-03-26T16:41:38;9.30;96.60
52471;DHT22;38382;53.160;7.026;2023-03-26T16:52:06;8.60;99.60
52471;DHT22;38382;53.160;7.026;2023-03-26T16:57:27;8.30;99.90
52471;DHT22;38382;53.160;7.026;2023-03-26T17:03:26;7.90;99.90
52471;DHT22;38382;53.160;7.026;2023-03-26T17:12:39;7.50;99.90
52471;DHT22;38382;53.160;7.026;2023-03-26T17:17:29;7.30;99.90
52471;DHT22;38382;53.160;7.026;2023-03-26T17:20:28;7.20;99.90
52471;DHT22;38382;53.160;7.026;2023-03-26T17:23:04;7.00;99.90
52471;DHT22;38382;53.160;7.026;2023-03-26T17:32:11;6.80;99.90
52471;DHT22;38382;53.160;7.026;2023-03-26T17:34:39;6.70;99.90
52471;DHT22;38382;53.160;7.026;2023-03-26T17:42:28;6.30;99.90
52471;DHT22;38382;53.160;7.026;2023-03-26T17:45:21;6.30;99.90
52471;DHT22;38382;53.160;7.026;2023-03-26T17:47:57;6.20;99.90
52471;DHT22;38382;53.160;7.026;2023-03-26T17:50:30;6.10;99.90
52471;DHT22;38382;53.160;7.026;2023-03-26T17:53:03;6.00;99.90
52471;DHT22;38382;53.160;7.026;2023-03-26T17:55:33;6.00;99.90
52471;DHT22;38382;53.160;7.026;2023-03-26T17:58:01;5.80;99.90
52471;DHT22;38382;53.160;7.026;2023-03-26T18:00:42;5.80;99.90
52471;DHT22;38382;53.160;7.026;2023-03-26T18:03:22;5.70;99.90
52471;DHT22;38382;53.160;7.026;2023-03-26T18:06:03;5.70;99.90
52471;DHT22;38382;53.160;7.026;2023-03-26T18:14:58;5.50;99.90
52471;DHT22;38382;53.160;7.026;2023-03-26T18:17:14;5.40;99.90
52471;DHT22;38382;53.160;7.026;2023-03-26T18:19:54;5.40;99.90
52471;DHT22;38382;53.160;7.026;2023-03-26T18:22:28;5.30;99.90
52471;DHT22;38382;53.160;7.026;2023-03-26T18:25:01;5.30;99.90
52471;DHT22;38382;53.160;7.026;2023-03-26T18:27:35;5.20;99.90
52471;DHT22;38382;53.160;7.026;2023-03-26T18:30:15;5.20;99.90
52471;DHT22;38382;53.160;7.026;2023-03-26T18:33:02;5.20;99.90
52471;DHT22;38382;53.160;7.026;2023-03-26T18:35:49;5.80;99.90
52471;DHT22;38382;53.160;7.026;2023-03-26T18:38:21;5.10;99.90
52471;DHT22;38382;53.160;7.026;2023-03-26T18:40:50;5.00;99.90
52471;DHT22;38382;53.160;7.026;2023-03-26T18:43:19;5.00;99.90
52471;DHT22;38382;53.160;7.026;2023-03-26T18:45:47;5.00;99.90
52471;DHT22;38382;53.160;7.026;2023-03-26T18:48:20;4.90;99.90
52471;DHT22;38382;53.160;7.026;2023-03-26T18:50:52;5.10;99.90
52471;DHT22;38382;53.160;7.026;2023-03-26T18:53:29;4.80;99.90
52471;DHT22;38382;53.160;7.026;2023-03-26T18:55:56;4.80;99.90
52471;DHT22;38382;53.160;7.026;2023-03-26T18:58:28;4.80;99.90
52471;DHT22;38382;53.160;7.026;2023-03-26T19:00:59;5.60;99.90
52471;DHT22;38382;53.160;7.026;2023-03-26T19:03:27;4.70;99.90
52471;DHT22;38382;53.160;7.026;2023-03-26T19:05:56;4.70;99.90
52471;DHT22;38382;53.160;7.026;2023-03-26T19:08:23;4.60;99.90
52471;DHT22;38382;53.160;7.026;2023-03-26T19:10:51;4.60;99.90
52471;DHT22;38382;53.160;7.026;2023-03-26T19:13:19;4.60;99.90
52471;DHT22;38382;53.160;7.026;2023-03-26T19:15:46;4.50;99.90
52471;DHT22;38382;53.160;7.026;2023-03-26T19:18:23;5.50;99.90
52471;DHT22;38382;53.160;7.026;2023-03-26T19:21:00;4.50;99.90
52471;DHT22;38382;53.160;7.026;2023-03-26T19:23:31;5.00;99.90
52471;DHT22;38382;53.160;7.026;2023-03-26T19:26:02;4.70;99.90
52471;DHT22;38382;53.160;7.026;2023-03-26T19:31:15;4.40;99.90
52471;DHT22;38382;53.160;7.026;2023-03-26T19:33:45;4.50;99.90
52471;DHT22;38382;53.160;7.026;2023-03-26T19:36:24;4.40;99.90
52471;DHT22;38382;53.160;7.026;2023-03-26T19:38:53;4.50;99.90
52471;DHT22;38382;53.160;7.026;2023-03-26T19:41:22;4.40;99.90
52471;DHT22;38382;53.160;7.026;2023-03-26T19:43:53;4.40;99.90
52471;DHT22;38382;53.160;7.026;2023-03-26T19:46:28;4.40;99.90
52471;DHT22;38382;53.160;7.026;2023-03-26T19:48:56;4.40;99.90
52471;DHT22;38382;53.160;7.026;2023-03-26T19:51:32;4.40;99.90
52471;DHT22;38382;53.160;7.026;2023-03-26T19:54:01;4.30;99.90
52471;DHT22;38382;53.160;7.026;2023-03-26T19:56:27;5.00;99.90
52471;DHT22;38382;53.160;7.026;2023-03-26T19:58:54;4.30;99.90
52471;DHT22;38382;53.160;7.026;2023-03-26T20:01:26;4.30;99.90
52471;DHT22;38382;53.160;7.026;2023-03-26T20:03:58;4.30;99.90
52471;DHT22;38382;53.160;7.026;2023-03-26T20:06:26;4.30;99.90
52471;DHT22;38382;53.160;7.026;2023-03-26T20:08:55;4.30;99.90
52471;DHT22;38382;53.160;7.026;2023-03-26T20:11:28;4.30;99.90
52471;DHT22;38382;53.160;7.026;2023-03-26T20:13:59;4.30;99.90
52471;DHT22;38382;53.160;7.026;2023-03-26T20:16:30;4.30;99.90
52471;DHT22;38382;53.160;7.026;2023-03-26T20:18:58;4.40;99.90
52471;DHT22;38382;53.160;7.026;2023-03-26T20:21:29;4.30;99.90
52471;DHT22;38382;53.160;7.026;2023-03-26T20:24:14;4.30;99.90
52471;DHT22;38382;53.160;7.026;2023-03-26T20:26:40;4.20;99.90
52471;DHT22;38382;53.160;7.026;2023-03-26T20:29:06;4.30;99.90
52471;DHT22;38382;53.160;7.026;2023-03-26T20:31:31;4.90;99.90
52471;DHT22;38382;53.160;7.026;2023-03-26T20:33:57;4.30;99.90
52471;DHT22;38382;53.160;7.026;2023-03-26T20:36:24;4.30;99.90
52471;DHT22;38382;53.160;7.026;2023-03-26T20:38:51;4.30;99.90
52471;DHT22;38382;53.160;7.026;2023-03-26T20:41:22;4.30;99.90
52471;DHT22;38382;53.160;7.026;2023-03-26T20:43:51;4.30;99.90
52471;DHT22;38382;53.160;7.026;2023-03-26T20:46:19;4.30;99.90
52471;DHT22;38382;53.160;7.026;2023-03-26T20:48:45;4.30;99.90
52471;DHT22;38382;53.160;7.026;2023-03-26T20:51:12;4.30;99.90
52471;DHT22;38382;53.160;7.026;2023-03-26T20:53:43;4.30;99.90
52471;DHT22;38382;53.160;7.026;2023-03-26T20:56:17;4.70;99.90
52471;DHT22;38382;53.160;7.026;2023-03-26T20:58:45;4.40;99.90
52471;DHT22;38382;53.160;7.026;2023-03-26T21:01:12;4.70;99.90
52471;DHT22;38382;53.160;7.026;2023-03-26T21:03:39;4.80;99.90
52471;DHT22;38382;53.160;7.026;2023-03-26T21:06:09;4.40;99.90
52471;DHT22;38382;53.160;7.026;2023-03-26T21:08:36;4.40;99.90
52471;DHT22;38382;53.160;7.026;2023-03-26T21:11:04;4.40;99.90
52471;DHT22;38382;53.160;7.026;2023-03-26T21:13:39;4.30;99.90
52471;DHT22;38382;53.160;7.026;2023-03-26T21:16:09;4.30;99.90
52471;DHT22;38382;53.160;7.026;2023-03-26T21:18:35;4.30;99.90
52471;DHT22;38382;53.160;7.026;2023-03-26T21:23:42;4.20;99.90
52471;DHT22;38382;53.160;7.026;2023-03-26T21:26:40;4.10;99.90
52471;DHT22;38382;53.160;7.026;2023-03-26T21:29:02;4.10;99.90